Northwest Alabama Regional Airport
KMSL : now visible

Airfield :











YOU CAN JOIN US ON...

 
LOGIN :

Register | Disclaimer

   EN    FR    IT 

 









Legend :    VFR   Marginal VFR   IFR   Intensive IFR   Very Intensive IFR
Visi :
Ceiling :
>= 8 km
>= 3000ft
5 to 8 km
1000 to 3000 ft
1500m to 5 km
500 to 1000 ft
800 to 1500m
200 to 500 ft
< 800m
< 200 ft
Symbols :   Thunderstorms  Fog  Heavy snow  Heavy precipitations  Wind > 20 kt







- Airport Elevation : 551 ft
- IATA code : MSL


KMSL - Northwest Alabama Regional

CURRENT METAR :
  • 252253Z AUTO 17006KT 10SM -RA BKN035 OVC045 17/16 A2975 RMK AO2 SLP068 P0009 T01720156

EXPIRED METARs :
  • 252153Z AUTO 19011KT 9SM RA FEW041 BKN055 OVC075 18/15 A2977 RMK AO2 RAB43 SLP076 P0002 T01780150
  • 252053Z AUTO 21005KT 10SM FEW016 18/15 A2978 RMK AO2 RAE06 SLP079 P0000 60006 T01830150 55025

TAF KMSL
Valid from the 26 at 00:00 until the 27 at 00:00 UTC


252330Z 2600/2624 19010KT P6SM VCSH SCT020 BKN070 OVC150
TEMPO 2601/2604 5SM -SHRA BR BKN015 OVC040
FM260400 27006KT 6SM BR BKN007 OVC015
FM260700 29010KT P6SM SCT007 OVC015
FM261300 30010G20KT P6SM SCT035
FM261800 31015G23KT P6SM SCT050
KZME FIR / North America



MET'MAP, your aeronautical weather chart ! - Copyright ORBIFLY December 2007 - Disclaimer

ORBIFLY MET'MAP TEAM :

Programming & Development : Alexandra Zaïnal
Concept & Development : Baudouin d'Aumeries
Co-Development & Prog : Marc-Olivier Méhu
Technical & hardware support : Manuel Goepfert

Contact : metmap@orbifly.com




SOURCES & CREDITS :

   NOAA       Earth
Advisory